Carnforth, United Kingdom
Current Conditions -  °F | °C
As of 8:50 AM on Saturday 22 Nov 2014 (Local Time) from EGOW Reporting Station
Haze Haze  
Wind Chill: 50°   Ceiling: Unl
Heat Index: 50°   Visibility: 2.5mi
Dew Point: 50°   Wind: 12mph
Humidity: 100%   Direction: 140°SE
Pressure: 29.77"   Gusts: NA
Location:  54.12°N, 2.77°W
Report Text: EGOW 220850Z 14010KT 4000 BR FEW004 10/10 Q1008 GRN
Loading
Personal Weather Stations






























Interactive Weather Map New forecast layout! Learn more

10-Day Weather Forecast

Advertisements
Track Severe Weather on mobile